Time;durP1;ratioP1;P1;durP2;ratioP2;P2;SDS_P1;SDS_P2;PMS_P1;PMS_P2;Temp;Humidity;BMP_temperature;BMP_pressure;BME280_temperature;BME280_humidity;BME280_pressure;Samples;Min_cycle;Max_cycle;Signal;HPM_P1;HPM_P2
2022/06/23 00:02:23;;;;;;;;;34.50;30.00;;;;;20.99;71.37;100140.13;5055509;28;45349;-76
2022/06/23 00:04:52;;;;;;;;;36.50;31.50;;;;;20.99;72.76;100147.28;5054860;28;46506;-72
2022/06/23 00:07:24;;;;;;;;;35.50;31.75;;;;;21.04;72.74;100146.88;5054718;28;45417;-70
2022/06/23 00:09:57;;;;;;;;;34.50;31.25;;;;;21.04;75.81;100149.56;5054639;28;45290;-74
2022/06/23 00:12:36;;;;;;;;;41.25;36.25;;;;;20.81;80.23;100144.47;5070363;28;45553;-71
2022/06/23 00:15:02;;;;;;;;;35.25;31.25;;;;;20.31;97.02;100132.78;5054838;28;45293;-71
2022/06/23 00:17:29;;;;;;;;;38.50;32.75;;;;;20.04;100.00;100134.25;5054544;28;45320;-73
2022/06/23 00:19:58;;;;;;;;;39.75;34.25;;;;;19.79;100.00;100125.69;5054795;28;45442;-71
2022/06/23 00:22:27;;;;;;;;;42.50;35.50;;;;;19.70;100.00;100131.81;5054870;28;45363;-78
2022/06/23 00:24:58;;;;;;;;;43.25;37.25;;;;;19.68;100.00;100131.09;5054597;28;46453;-78
2022/06/23 00:27:30;;;;;;;;;45.25;38.25;;;;;19.71;100.00;100130.84;5054920;28;45401;-78
2022/06/23 00:30:00;;;;;;;;;41.50;35.25;;;;;19.63;100.00;100146.66;5054699;28;45385;-77
2022/06/23 00:32:26;;;;;;;;;41.75;35.75;;;;;19.54;100.00;100140.28;5055305;28;45682;-75
2022/06/23 00:35:00;;;;;;;;;41.25;36.25;;;;;19.47;100.00;100133.78;5054484;28;45618;-71
2022/06/23 00:37:26;;;;;;;;;42.50;35.25;;;;;19.45;100.00;100123.22;5054237;28;45365;-73
2022/06/23 00:39:53;;;;;;;;;45.25;37.00;;;;;19.32;100.00;100127.91;5054616;28;45357;-76
2022/06/23 00:42:29;;;;;;;;;45.75;37.25;;;;;19.34;100.00;100120.63;5054749;28;45399;-76
2022/06/23 00:44:59;;;;;;;;;40.50;35.00;;;;;19.31;100.00;100136.88;5054525;28;46548;-71
2022/06/23 00:47:39;;;;;;;;;42.00;34.50;;;;;19.32;100.00;100127.91;5055039;28;45262;-75
2022/06/23 00:50:18;;;;;;;;;46.00;38.50;;;;;19.26;100.00;100135.47;5054548;28;45438;-71
2022/06/23 00:53:13;;;;;;;;;44.75;38.50;;;;;19.11;100.00;100126.09;5071676;28;45285;-67
2022/06/23 00:55:42;;;;;;;;;47.00;38.50;;;;;18.96;100.00;100120.16;5057607;28;45550;-70
2022/06/23 00:58:15;;;;;;;;;46.50;37.00;;;;;18.79;100.00;100103.75;5058172;28;45366;-78
2022/06/23 01:00:42;;;;;;;;;44.25;38.50;;;;;18.83;100.00;100117.69;5057733;28;45716;-76
2022/06/23 01:03:07;;;;;;;;;40.25;35.75;;;;;18.81;100.00;100122.31;5057862;28;45280;-74
2022/06/23 01:05:40;;;;;;;;;43.00;36.00;;;;;18.71;100.00;100116.88;5057667;28;45389;-76
2022/06/23 01:08:39;;;;;;;;;45.00;38.00;;;;;18.72;100.00;100105.25;5057812;28;45227;-78
2022/06/23 01:11:19;;;;;;;;;47.00;39.25;;;;;18.69;100.00;100097.50;5057534;28;45350;-70
2022/06/23 01:14:13;;;;;;;;;37.25;33.75;;;;;18.65;100.00;100096.94;5058822;28;45397;-69
2022/06/23 01:16:47;;;;;;;;;43.00;37.25;;;;;18.66;100.00;100092.44;5073626;28;47309;-72
2022/06/23 01:19:12;;;;;;;;;43.25;36.75;;;;;18.70;100.00;100107.19;5057143;28;45429;-71
2022/06/23 01:21:53;;;;;;;;;44.00;36.50;;;;;18.70;100.00;100107.19;5057273;28;45581;-67
2022/06/23 01:24:41;;;;;;;;;41.25;36.25;;;;;18.74;100.00;100105.97;5057445;28;45336;-68
2022/06/23 01:27:28;;;;;;;;;39.25;34.50;;;;;18.77;100.00;100105.72;5056003;28;48325;-70
2022/06/23 01:30:02;;;;;;;;;43.75;36.25;;;;;18.85;100.00;100107.75;5072412;28;45725;-70
2022/06/23 01:32:34;;;;;;;;;42.00;35.75;;;;;18.78;100.00;100107.41;5057191;28;45371;-71
2022/06/23 01:35:16;;;;;;;;;44.50;37.50;;;;;18.81;100.00;100106.31;5057388;28;45478;-73
2022/06/23 01:37:48;;;;;;;;;36.50;34.00;;;;;18.82;100.00;100098.19;5057020;28;46582;-73
2022/06/23 01:40:22;;;;;;;;;45.00;38.25;;;;;18.77;100.00;100097.72;5057963;28;45298;-77
2022/06/23 01:42:52;;;;;;;;;46.75;39.00;;;;;18.79;100.00;100106.44;5057020;28;45425;-72
2022/06/23 01:45:43;;;;;;;;;43.00;37.75;;;;;18.81;100.00;100096.50;5057933;28;45460;-73
2022/06/23 01:48:14;;;;;;;;;44.00;36.00;;;;;18.84;100.00;100096.22;5057130;28;46057;-69
2022/06/23 01:50:42;;;;;;;;;41.50;35.50;;;;;18.87;100.00;100097.81;5057233;28;45394;-69
2022/06/23 01:53:24;;;;;;;;;45.00;37.25;;;;;18.89;100.00;100092.34;5057161;28;45412;-72
2022/06/23 01:55:59;;;;;;;;;39.25;35.00;;;;;18.96;100.00;100098.84;5057015;28;45335;-71
2022/06/23 01:58:33;;;;;;;;;41.00;35.50;;;;;19.02;100.00;100093.03;5072204;28;46608;-77
2022/06/23 02:01:02;;;;;;;;;42.25;36.50;;;;;19.09;100.00;100096.91;5055215;28;45387;-72
2022/06/23 02:03:38;;;;;;;;;39.50;35.50;;;;;19.11;100.00;100094.09;5056200;28;45342;-74
2022/06/23 02:06:21;;;;;;;;;41.50;36.25;;;;;19.15;100.00;100097.38;5057298;28;45477;-72
2022/06/23 02:08:58;;;;;;;;;45.00;37.25;;;;;19.06;100.00;100090.97;5056418;28;46474;-74
2022/06/23 02:11:35;;;;;;;;;45.00;36.00;;;;;19.03;100.00;100089.41;5055001;28;45291;-71
2022/06/23 02:14:11;;;;;;;;;38.00;33.50;;;;;19.05;100.00;100095.44;5056705;28;45204;-71
2022/06/23 02:16:45;;;;;;;;;40.75;35.00;;;;;19.02;100.00;100093.03;5056953;28;45263;-73
2022/06/23 02:19:25;;;;;;;;;42.75;36.25;;;;;19.02;100.00;100100.19;5054796;28;47596;-73
2022/06/23 02:21:50;;;;;;;;;38.25;34.25;;;;;19.01;100.00;100091.34;5056214;28;45344;-76
2022/06/23 02:24:25;;;;;;;;;40.00;35.50;;;;;19.02;100.00;100078.88;5056617;28;45378;-76
2022/06/23 02:26:56;;;;;;;;;40.25;34.00;;;;;19.04;100.00;100085.75;5056952;28;45397;-74
2022/06/23 02:29:30;;;;;;;;;38.25;34.50;;;;;19.05;100.00;100087.44;5056186;28;45359;-71
2022/06/23 02:32:03;;;;;;;;;41.50;35.75;;;;;19.03;100.00;100077.91;5056239;28;45282;-69
2022/06/23 02:34:32;;;;;;;;;42.00;35.25;;;;;19.05;100.00;100084.78;5056066;28;45413;-71
2022/06/23 02:37:35;;;;;;;;;40.25;34.25;;;;;19.01;100.00;100080.69;5056488;28;45286;-69
2022/06/23 02:40:03;;;;;;;;;44.50;37.25;;;;;19.03;100.00;100077.91;5055762;28;46591;-71
2022/06/23 02:42:36;;;;;;;;;43.25;35.50;;;;;19.03;100.00;100078.72;5055967;28;45496;-73
2022/06/23 02:45:14;;;;;;;;;42.00;36.50;;;;;19.01;100.00;100082.50;5054654;28;45295;-69
2022/06/23 02:47:53;;;;;;;;;40.50;35.00;;;;;18.97;100.00;100080.09;5056864;28;45326;-75
2022/06/23 02:50:38;;;;;;;;;39.50;33.25;;;;;19.00;100.00;100078.16;5055941;28;45563;-66
2022/06/23 02:53:03;;;;;;;;;42.75;35.00;;;;;19.04;100.00;100074.25;5055978;28;45396;-70
2022/06/23 02:56:22;;;;;;;;;44.75;36.50;;;;;19.10;100.00;100079.06;5055946;28;45476;-72
2022/06/23 02:59:20;;;;;;;;;44.75;35.75;;;;;19.14;100.00;100071.69;5053863;28;45308;-73
2022/06/23 03:01:57;;;;;;;;;37.75;32.00;;;;;19.10;100.00;100071.06;5055103;28;45322;-71
2022/06/23 03:04:40;;;;;;;;;33.75;31.75;;;;;19.08;100.00;100078.34;5055791;28;45293;-70
2022/06/23 03:07:17;;;;;;;;;33.50;31.00;;;;;19.11;100.00;100088.75;5055878;28;45406;-73
2022/06/23 03:09:49;;;;;;;;;25.75;24.75;;;;;19.15;100.00;100086.69;5056250;28;45454;-72
2022/06/23 03:12:35;;;;;;;;;16.75;15.50;;;;;19.15;100.00;100084.88;5055539;28;46475;-75
2022/06/23 03:15:08;;;;;;;;;14.50;14.50;;;;;19.18;100.00;100089.94;5055735;28;45387;-72
2022/06/23 03:17:33;;;;;;;;;17.50;13.25;;;;;19.21;100.00;100097.66;5055816;28;45391;-73
2022/06/23 03:20:07;;;;;;;;;10.00;8.25;;;;;19.21;100.00;100099.50;5055529;28;45663;-75
2022/06/23 03:22:47;;;;;;;;;9.00;7.75;;;;;19.19;100.00;100102.28;5055295;28;46217;-72
2022/06/23 03:25:57;;;;;;;;;10.50;8.25;;;;;19.19;100.00;100101.47;5055649;28;45450;-76
2022/06/23 03:28:55;;;;;;;;;8.00;6.75;;;;;19.15;100.00;100102.69;5054890;28;45336;-73
2022/06/23 03:31:32;;;;;;;;;7.25;7.25;;;;;19.14;100.00;100104.50;5055070;28;45300;-75
2022/06/23 03:34:12;;;;;;;;;7.75;7.75;;;;;19.12;100.00;100103.78;5056624;28;46240;-76
2022/06/23 03:36:43;;;;;;;;;5.25;5.00;;;;;19.10;100.00;100106.59;5057143;28;45407;-75
2022/06/23 03:42:14;;;;;;;;;7.75;6.00;;;;;19.13;100.00;100116.13;5055294;28;45197;-75
2022/06/23 03:44:52;;;;;;;;;5.75;5.75;;;;;19.10;100.00;100117.25;5055277;28;46555;-76
2022/06/23 03:47:43;;;;;;;;;5.75;5.75;;;;;19.09;100.00;100128.88;5054873;28;45359;-71
2022/06/23 03:50:18;;;;;;;;;6.25;6.25;;;;;19.11;100.00;100137.59;5055050;28;45391;-76
2022/06/23 03:53:19;;;;;;;;;8.00;6.50;;;;;19.11;100.00;100134.06;5055824;28;45275;-75
2022/06/23 03:56:11;;;;;;;;;7.00;6.50;;;;;19.13;100.00;100142.78;5054680;28;45497;-68
2022/06/23 03:58:49;;;;;;;;;6.75;6.00;;;;;19.11;100.00;100145.59;5055108;28;45911;-76
2022/06/23 04:01:24;;;;;;;;;8.00;8.00;;;;;19.16;100.00;100152.38;5055406;28;45344;-66
2022/06/23 04:04:03;;;;;;;;;9.25;6.25;;;;;19.18;100.00;100150.41;5055005;28;45410;-76
2022/06/23 04:06:35;;;;;;;;;7.00;4.75;;;;;19.18;100.00;100151.25;5054677;28;45418;-77
2022/06/23 04:09:08;;;;;;;;;7.75;5.25;;;;;19.16;100.00;100153.19;5054489;28;45341;-76
2022/06/23 04:12:06;;;;;;;;;7.50;6.25;;;;;19.16;100.00;100157.69;5054712;28;45454;-70
2022/06/23 04:14:57;;;;;;;;;5.50;5.50;;;;;19.15;100.00;100156.84;5054983;28;45275;-74
2022/06/23 04:17:35;;;;;;;;;5.50;5.50;;;;;19.14;100.00;100156.97;5055432;28;46218;-75
2022/06/23 04:20:20;;;;;;;;;7.00;5.75;;;;;19.14;100.00;100163.16;5056442;28;45486;-74
2022/06/23 04:23:04;;;;;;;;;6.25;5.00;;;;;19.09;100.00;100157.34;5055421;28;45388;-72
2022/06/23 04:26:01;;;;;;;;;6.50;5.00;;;;;19.14;100.00;100160.47;5055031;28;45428;-69
2022/06/23 04:28:57;;;;;;;;;9.25;6.75;;;;;19.17;100.00;100170.06;5057096;28;45379;-71
2022/06/23 04:31:32;;;;;;;;;9.00;6.00;;;;;19.18;100.00;100177.09;5057292;28;45468;-74
2022/06/23 04:33:58;;;;;;;;;5.25;5.25;;;;;19.20;100.00;100170.63;5056355;28;45254;-75
2022/06/23 04:36:27;;;;;;;;;10.00;6.00;;;;;19.18;100.00;100171.75;5057875;28;45312;-74
2022/06/23 04:38:59;;;;;;;;;6.75;6.75;;;;;19.17;100.00;100170.88;5058002;28;46482;-70
2022/06/23 04:41:41;;;;;;;;;6.75;6.75;;;;;19.15;100.00;100175.50;5057954;28;45249;-76
2022/06/23 04:44:46;;;;;;;;;6.00;6.00;;;;;19.20;100.00;100170.63;5058276;28;45405;-71
2022/06/23 04:47:20;;;;;;;;;6.25;4.50;;;;;19.25;100.00;100170.25;5056658;28;45469;-74
2022/06/23 04:49:50;;;;;;;;;7.25;7.00;;;;;19.26;100.00;100169.28;5057776;28;46314;-73
2022/06/23 04:52:23;;;;;;;;;6.00;6.00;;;;;19.31;100.00;100176.88;5057835;28;45351;-75
2022/06/23 04:54:56;;;;;;;;;5.00;5.00;;;;;19.30;100.00;100178.72;5057672;28;45323;-70
2022/06/23 04:57:43;;;;;;;;;7.00;6.00;;;;;19.29;100.00;100174.38;5057975;28;45409;-75
2022/06/23 05:00:29;;;;;;;;;6.75;5.00;;;;;19.34;100.00;100180.16;5058241;28;46772;-76
2022/06/23 05:03:00;;;;;;;;;8.00;8.00;;;;;19.35;100.00;100173.84;5056347;28;45443;-75
2022/06/23 05:05:33;;;;;;;;;8.50;5.50;;;;;19.40;100.00;100181.44;5058087;28;45401;-76
2022/06/23 05:08:05;;;;;;;;;11.00;8.00;;;;;19.48;100.00;100175.47;5058086;28;45334;-75
2022/06/23 05:10:35;;;;;;;;;6.75;6.25;;;;;19.53;100.00;100174.09;5056929;28;47699;-75
2022/06/23 05:13:06;;;;;;;;;6.00;6.00;;;;;19.64;100.00;100185.72;5057407;28;45455;-72
2022/06/23 05:15:50;;;;;;;;;6.50;5.00;;;;;19.72;100.00;100185.91;5057678;28;45259;-75
2022/06/23 05:18:23;;;;;;;;;8.00;6.25;;;;;19.78;100.00;100192.53;5058791;28;45347;-75
2022/06/23 05:21:04;;;;;;;;;7.75;6.00;;;;;19.82;100.00;100193.94;5058119;28;45547;-76
2022/06/23 05:23:43;;;;;;;;;7.00;7.00;;;;;19.86;100.00;100190.03;5058124;28;45862;-75
2022/06/23 05:26:17;;;;;;;;;8.50;5.50;;;;;19.88;100.00;100189.91;5073250;28;45347;-77
2022/06/23 05:28:43;;;;;;;;;6.25;6.25;;;;;19.93;100.00;100188.56;5056217;28;45490;-76
2022/06/23 05:31:17;;;;;;;;;5.25;5.25;;;;;19.95;100.00;100189.28;5072424;28;48202;-74
2022/06/23 05:33:48;;;;;;;;;8.00;5.25;;;;;20.10;100.00;100195.13;5057023;28;45388;-75
2022/06/23 05:36:31;;;;;;;;;5.25;5.25;;;;;20.23;100.00;100194.06;5057142;27;45496;-75
2022/06/23 05:39:04;;;;;;;;;5.50;5.50;;;;;20.38;100.00;100195.38;5056281;28;45412;-77
2022/06/23 05:41:36;;;;;;;;;5.75;5.75;;;;;20.53;100.00;100190.50;5056583;28;46198;-75
2022/06/23 05:44:09;;;;;;;;;5.25;5.25;;;;;20.70;100.00;100189.03;5057378;28;45381;-75
2022/06/23 05:46:40;;;;;;;;;6.00;6.00;;;;;20.78;100.00;100188.34;5056660;28;45374;-74
2022/06/23 05:49:20;;;;;;;;;7.75;4.75;;;;;20.90;100.00;100188.22;5072667;28;45491;-72
2022/06/23 05:51:53;;;;;;;;;5.50;5.50;;;;;21.01;99.31;100180.06;5055371;28;46191;-76
2022/06/23 05:54:36;;;;;;;;;5.00;5.00;;;;;21.10;97.99;100186.41;5056921;28;45416;-76
2022/06/23 05:57:14;;;;;;;;;6.00;6.00;;;;;21.07;97.69;100186.69;5056693;28;45233;-73
2022/06/23 05:59:49;;;;;;;;;5.50;5.25;;;;;21.07;96.53;100181.34;5057123;28;45324;-76
2022/06/23 06:02:36;;;;;;;;;6.50;6.50;;;;;21.16;97.63;100192.03;5059451;28;45965;-72
2022/06/23 06:05:02;;;;;;;;;8.50;7.25;;;;;21.25;96.03;100179.66;5058222;28;45397;-72
2022/06/23 06:07:38;;;;;;;;;9.00;7.00;;;;;21.18;95.57;100157.16;5057478;28;45290;-73
2022/06/23 06:10:12;;;;;;;;;9.00;8.00;;;;;21.32;94.43;100177.28;5056239;28;45278;-76
2022/06/23 06:12:41;;;;;;;;;9.75;8.00;;;;;21.30;93.03;100176.59;5056151;28;45740;-76
2022/06/23 06:15:18;;;;;;;;;7.50;7.25;;;;;21.33;94.39;100188.81;5057016;28;45275;-78
2022/06/23 06:17:44;;;;;;;;;8.25;8.25;;;;;21.36;94.66;100176.00;5057974;28;45353;-78
2022/06/23 06:20:11;;;;;;;;;10.25;7.00;;;;;21.37;94.53;100174.16;5057172;28;45518;-72
2022/06/23 06:22:42;;;;;;;;;15.00;10.50;;;;;21.52;94.33;100182.59;5055288;28;47353;-69
2022/06/23 06:25:21;;;;;;;;;9.75;9.25;;;;;21.66;95.04;100187.53;5071998;28;45457;-71
2022/06/23 06:27:46;;;;;;;;;6.25;6.25;;;;;21.77;93.57;100193.72;5056880;28;45448;-76
2022/06/23 06:30:25;;;;;;;;;7.25;7.00;;;;;21.83;93.00;100174.41;5055325;28;45536;-76
2022/06/23 06:32:50;;;;;;;;;9.50;9.50;;;;;21.86;91.92;100179.47;5056792;28;45645;-77
2022/06/23 06:35:28;;;;;;;;;6.50;6.00;;;;;21.89;92.50;100173.81;5056144;28;45423;-72
2022/06/23 06:38:02;;;;;;;;;6.25;6.25;;;;;21.83;91.25;100174.41;5056080;28;45454;-68
2022/06/23 06:40:29;;;;;;;;;10.50;9.00;;;;;21.69;91.39;100173.88;5056409;28;45477;-73
2022/06/23 06:42:59;;;;;;;;;12.00;10.50;;;;;21.62;91.89;100180.75;5056711;28;45568;-70
2022/06/23 06:45:29;;;;;;;;;8.75;8.75;;;;;21.54;91.45;100183.31;5074265;28;45257;-72
2022/06/23 06:47:55;;;;;;;;;9.50;8.00;;;;;21.50;93.05;100182.75;5075444;27;45421;-71
2022/06/23 06:50:24;;;;;;;;;8.75;7.25;;;;;21.45;92.16;100185.84;5075810;27;45469;-72
2022/06/23 06:52:51;;;;;;;;;12.50;11.75;;;;;21.44;91.59;100183.31;5076024;27;46416;-71
2022/06/23 06:55:29;;;;;;;;;11.00;8.25;;;;;21.41;92.54;100180.91;5075498;27;45366;-69
2022/06/23 06:58:05;;;;;;;;;9.00;8.75;;;;;21.38;91.52;100181.19;5075457;28;45295;-71
2022/06/23 07:00:39;;;;;;;;;11.25;8.00;;;;;21.37;91.40;100193.75;5076042;27;45383;-70
2022/06/23 07:03:06;;;;;;;;;8.00;8.00;;;;;21.32;90.83;100196.00;5075558;27;46132;-71
2022/06/23 07:05:38;;;;;;;;;16.50;15.75;;;;;21.31;90.93;100199.66;5074242;28;45436;-74
2022/06/23 07:08:10;;;;;;;;;9.00;7.25;;;;;21.27;90.64;100198.25;5075355;28;45325;-71
2022/06/23 07:10:43;;;;;;;;;11.75;9.25;;;;;21.28;89.95;100195.44;5076485;27;45266;-71
2022/06/23 07:13:38;;;;;;;;;8.25;8.25;;;;;21.22;89.38;100179.13;5075075;27;45282;-71
2022/06/23 07:16:17;;;;;;;;;10.00;10.00;;;;;21.27;90.95;100185.72;5068350;28;45712;-74
2022/06/23 07:18:50;;;;;;;;;8.75;8.00;;;;;21.30;89.45;100193.47;5074352;27;45394;-74
2022/06/23 07:21:30;;;;;;;;;10.00;8.50;;;;;21.30;88.92;100204.16;5075903;27;45354;-72
2022/06/23 07:24:25;;;;;;;;;13.00;10.50;;;;;21.36;89.84;100208.13;5073524;27;46158;-69
2022/06/23 07:27:02;;;;;;;;;10.25;8.50;;;;;21.42;89.85;100202.19;5075720;27;45464;-73
2022/06/23 07:30:04;;;;;;;;;7.00;7.00;;;;;21.49;89.20;100209.66;5075291;27;45329;-70
2022/06/23 07:32:57;;;;;;;;;9.00;7.00;;;;;21.54;89.12;100204.72;5075339;28;45406;-72
2022/06/23 07:35:33;;;;;;;;;8.50;7.25;;;;;21.66;88.91;100211.63;5075240;28;45544;-71
2022/06/23 07:38:01;;;;;;;;;9.00;8.00;;;;;21.71;87.86;100212.03;5075017;27;45402;-73
2022/06/23 07:40:31;;;;;;;;;7.50;6.75;;;;;21.77;86.55;100217.81;5075200;28;45346;-70
2022/06/23 07:43:04;;;;;;;;;8.25;8.00;;;;;21.80;87.57;100214.84;5074723;27;45646;-68
2022/06/23 07:45:48;;;;;;;;;8.00;8.00;;;;;21.83;87.24;100207.38;5074444;27;45570;-72
2022/06/23 07:48:13;;;;;;;;;6.75;5.75;;;;;21.91;85.00;100217.34;5075087;28;45308;-71
2022/06/23 07:50:39;;;;;;;;;9.25;9.25;;;;;21.95;86.72;100205.38;5073655;28;45652;-73
2022/06/23 07:53:06;;;;;;;;;7.75;6.50;;;;;22.01;85.42;100223.53;5075409;28;45473;-72
2022/06/23 07:55:43;;;;;;;;;8.50;6.75;;;;;22.06;85.17;100216.91;5073373;28;47906;-70
2022/06/23 07:58:09;;;;;;;;;6.25;6.25;;;;;22.08;84.39;100209.56;5074610;27;45284;-71
2022/06/23 08:00:41;;;;;;;;;11.75;10.50;;;;;22.10;84.83;100211.13;5074982;27;45345;-71
2022/06/23 08:03:14;;;;;;;;;11.50;7.75;;;;;22.20;85.53;100215.59;5077209;27;45348;-71
2022/06/23 08:05:51;;;;;;;;;13.00;11.25;;;;;22.32;86.04;100209.06;5078603;28;45999;-71
2022/06/23 08:08:21;;;;;;;;;9.50;8.00;;;;;22.46;86.49;100208.59;5079163;28;45378;-74
2022/06/23 08:12:53;;;;;;;;;11.00;11.00;;;;;22.57;85.22;100212.94;5078628;27;45328;-76
2022/06/23 08:13:41;;;;;;;;;10.50;10.50;;;;;22.75;85.51;100214.81;5078613;27;45219;-73
2022/06/23 08:19:04;;;;;;;;;13.50;11.75;;;;;23.12;82.44;100211.16;5078183;28;45481;-71
2022/06/23 08:21:35;;;;;;;;;9.50;9.25;;;;;23.28;84.06;100215.00;5078453;28;45250;-73
2022/06/23 08:24:08;;;;;;;;;8.25;8.25;;;;;23.43;82.10;100216.19;5078711;27;45325;-73
2022/06/23 08:26:37;;;;;;;;;10.50;9.25;;;;;23.43;81.05;100205.44;5080553;28;46100;-74
2022/06/23 08:29:14;;;;;;;;;10.50;8.00;;;;;23.43;79.79;100197.41;5081387;27;45464;-73
2022/06/23 08:31:39;;;;;;;;;10.75;10.75;;;;;23.52;80.35;100210.88;5111637;27;45266;-72
2022/06/23 08:34:06;;;;;;;;;11.00;9.50;;;;;23.51;79.60;100191.22;5078661;27;45578;-73
2022/06/23 08:36:54;;;;;;;;;6.00;6.00;;;;;23.72;79.88;100207.00;5078492;27;45374;-73
2022/06/23 08:39:36;;;;;;;;;11.25;9.75;;;;;23.92;78.58;100212.16;5078733;28;45411;-74
2022/06/23 08:42:18;;;;;;;;;13.50;11.25;;;;;24.13;78.71;100210.97;5078343;28;45199;-70
2022/06/23 08:44:58;;;;;;;;;10.00;8.50;;;;;24.30;78.17;100215.44;5078531;28;45308;-74
2022/06/23 08:47:29;;;;;;;;;12.75;11.25;;;;;24.42;77.63;100215.16;5093389;27;47293;-70
2022/06/23 08:50:05;;;;;;;;;11.00;11.00;;;;;24.46;77.72;100205.78;5078547;27;45264;-72
2022/06/23 08:52:50;;;;;;;;;10.00;8.50;;;;;24.72;77.43;100207.53;5078330;28;45339;-73
2022/06/23 08:55:27;;;;;;;;;8.00;8.00;;;;;24.88;75.26;100209.44;5078437;28;45172;-74
2022/06/23 08:57:52;;;;;;;;;11.00;10.50;;;;;24.98;73.58;100209.31;5093436;27;47075;-71
2022/06/23 09:00:33;;;;;;;;;11.00;11.00;;;;;25.08;74.63;100216.22;5077846;27;45273;-73
2022/06/23 09:03:28;;;;;;;;;9.75;7.00;;;;;25.12;72.02;100214.03;5078209;27;45347;-72
2022/06/23 09:06:12;;;;;;;;;8.25;8.25;;;;;25.01;71.20;100212.53;5077097;28;45345;-72
2022/06/23 09:08:45;;;;;;;;;6.75;6.75;;;;;24.94;71.29;100206.94;5077791;27;46305;-73
2022/06/23 09:11:41;;;;;;;;;10.25;8.00;;;;;24.92;70.81;100208.97;5077494;28;45339;-73
2022/06/23 09:14:16;;;;;;;;;7.00;7.00;;;;;24.88;70.33;100207.59;5077458;28;45319;-71
2022/06/23 09:17:05;;;;;;;;;9.75;9.50;;;;;24.85;71.87;100199.00;5078207;28;45835;-74
2022/06/23 09:20:01;;;;;;;;;11.25;10.00;;;;;24.99;72.12;100205.59;5078049;28;46259;-72
2022/06/23 09:22:26;;;;;;;;;9.00;9.00;;;;;25.12;71.50;100205.97;5077664;27;45325;-73
2022/06/23 09:24:56;;;;;;;;;9.75;8.50;;;;;25.20;70.35;100210.53;5078031;28;45304;-73
2022/06/23 09:27:21;;;;;;;;;7.00;7.00;;;;;25.26;69.46;100206.31;5078047;27;45240;-75
2022/06/23 09:29:57;;;;;;;;;8.75;7.50;;;;;25.22;69.62;100203.94;5077733;28;46269;-74
2022/06/23 09:32:50;;;;;;;;;7.75;7.75;;;;;25.30;70.38;100205.81;5077757;28;45290;-74
2022/06/23 09:36:06;;;;;;;;;10.25;9.50;;;;;25.45;69.45;100200.66;5077345;28;45360;-71
2022/06/23 09:38:55;;;;;;;;;10.25;8.50;;;;;25.61;69.67;100201.66;5075298;28;45456;-72
2022/06/23 09:41:26;;;;;;;;;5.75;5.75;;;;;25.70;67.56;100203.31;5076350;27;45658;-71
2022/06/23 09:44:17;;;;;;;;;11.50;8.25;;;;;25.72;68.02;100195.06;5076406;28;45333;-73
2022/06/23 09:47:05;;;;;;;;;7.00;7.00;;;;;25.84;67.89;100191.00;5077050;27;45251;-72
2022/06/23 09:49:54;;;;;;;;;13.50;9.75;;;;;25.95;66.35;100197.88;5075575;28;45338;-75
2022/06/23 09:52:35;;;;;;;;;8.50;7.75;;;;;26.03;66.95;100199.72;5092119;27;47795;-74
2022/06/23 09:55:03;;;;;;;;;6.50;6.50;;;;;26.09;66.98;100197.16;5077333;28;45268;-74
2022/06/23 09:57:46;;;;;;;;;24.50;22.75;;;;;26.20;66.76;100203.22;5077460;28;45407;-74
2022/06/23 10:00:21;;;;;;;;;7.50;7.50;;;;;26.31;66.61;100205.53;5077463;28;45525;-71
2022/06/23 10:03:04;;;;;;;;;7.50;7.50;;;;;26.45;64.31;100197.72;5076653;27;45422;-72
2022/06/23 10:06:12;;;;;;;;;9.25;7.75;;;;;26.50;64.79;100206.13;5077576;28;45419;-73
2022/06/23 10:08:59;;;;;;;;;10.50;10.50;;;;;26.53;63.42;100205.81;5042032;28;45347;-72
2022/06/23 10:11:33;;;;;;;;;9.50;9.50;;;;;26.53;64.29;100200.44;5092000;27;45385;-73
2022/06/23 10:14:07;;;;;;;;;12.00;10.00;;;;;26.51;64.69;100197.88;5076510;28;46242;-73
2022/06/23 10:17:22;;;;;;;;;12.00;11.00;;;;;26.62;64.87;100203.91;5076432;28;45450;-74
2022/06/23 10:19:59;;;;;;;;;10.00;9.50;;;;;26.75;64.05;100203.34;5076462;27;45455;-71
2022/06/23 10:22:57;;;;;;;;;11.75;10.50;;;;;26.80;63.12;100196.38;5076750;27;45461;-74
2022/06/23 10:25:34;;;;;;;;;7.50;7.50;;;;;26.87;62.81;100193.00;5075538;28;45777;-75
2022/06/23 10:28:11;;;;;;;;;8.50;8.50;;;;;26.95;62.76;100199.19;5076618;28;45584;-77
2022/06/23 10:31:03;;;;;;;;;8.00;8.00;;;;;26.94;62.06;100199.34;5076418;28;45375;-74
2022/06/23 10:33:34;;;;;;;;;11.25;10.75;;;;;26.93;62.03;100200.38;5076665;27;45241;-73
2022/06/23 10:36:11;;;;;;;;;11.25;9.25;;;;;26.78;58.92;100176.81;5076388;28;46035;-75
2022/06/23 10:38:46;;;;;;;;;10.00;9.00;;;;;26.83;62.09;100197.94;5076159;28;45322;-73
2022/06/23 10:41:30;;;;;;;;;12.25;11.25;;;;;26.87;62.55;100199.25;5091699;27;45279;-70
2022/06/23 10:44:33;;;;;;;;;11.25;9.00;;;;;26.99;61.60;100196.97;5092277;27;45680;-73
2022/06/23 10:47:19;;;;;;;;;10.75;10.75;;;;;27.04;60.26;100185.63;5033709;28;45489;-72
2022/06/23 10:50:05;;;;;;;;;9.00;8.50;;;;;27.21;61.52;100184.50;5073752;27;45442;-74
2022/06/23 10:52:48;;;;;;;;;13.75;13.75;;;;;27.58;60.47;100186.59;5083043;27;45733;-68
2022/06/23 10:55:31;;;;;;;;;14.50;14.50;;;;;27.96;59.44;100181.97;5078694;28;45445;-74
2022/06/23 10:58:23;;;;;;;;;9.00;9.00;;;;;28.33;57.79;100183.97;5077066;27;46467;-71
2022/06/23 11:01:12;;;;;;;;;11.00;8.00;;;;;28.55;54.60;100182.13;5091578;27;45274;-73
2022/06/23 11:03:57;;;;;;;;;10.25;8.50;;;;;28.78;57.04;100183.91;5075787;27;45329;-72
2022/06/23 11:06:33;;;;;;;;;8.75;8.75;;;;;28.88;55.62;100189.81;5075931;28;45244;-71
2022/06/23 11:09:29;;;;;;;;;9.00;6.25;;;;;28.90;55.51;100178.78;5075874;28;45461;-73
2022/06/23 11:12:46;;;;;;;;;7.25;7.25;;;;;28.84;54.63;100177.72;5074581;28;45366;-74
2022/06/23 11:15:14;;;;;;;;;11.00;10.75;;;;;28.77;55.83;100174.91;5074176;28;45287;-71
2022/06/23 11:17:42;;;;;;;;;8.25;8.25;;;;;28.89;55.78;100175.25;5076100;28;45601;-70
2022/06/23 11:20:33;;;;;;;;;6.00;6.00;;;;;29.03;55.89;100169.97;5091254;27;46119;-72
2022/06/23 11:23:14;;;;;;;;;9.00;9.00;;;;;29.18;55.05;100164.50;5075621;27;45290;-71
2022/06/23 11:25:57;;;;;;;;;11.00;11.00;;;;;29.21;54.82;100162.22;5075665;27;45260;-72
2022/06/23 11:28:56;;;;;;;;;12.50;10.00;;;;;29.19;54.04;100158.88;5075797;27;45441;-72
2022/06/23 11:31:37;;;;;;;;;11.00;8.25;;;;;29.24;53.86;100153.72;5075558;28;45225;-75
2022/06/23 11:34:34;;;;;;;;;9.25;7.50;;;;;29.10;54.29;100141.09;5076285;28;45479;-73
2022/06/23 11:37:24;;;;;;;;;13.75;11.00;;;;;29.30;52.79;100152.94;5091754;27;45299;-73
2022/06/23 11:39:52;;;;;;;;;10.50;9.00;;;;;29.36;53.39;100158.59;5076079;28;45404;-74
2022/06/23 11:42:51;;;;;;;;;7.00;7.00;;;;;29.46;52.52;100144.75;5090972;27;46294;-73
2022/06/23 11:45:19;;;;;;;;;8.50;8.50;;;;;29.43;52.49;100145.97;5075736;28;45311;-72
2022/06/23 11:47:47;;;;;;;;;9.50;9.50;;;;;29.51;52.18;100145.81;5075199;27;45362;-71
2022/06/23 11:50:39;;;;;;;;;8.50;8.50;;;;;29.62;51.17;100132.75;5075486;28;45266;-73
2022/06/23 11:53:23;;;;;;;;;9.00;9.00;;;;;29.62;49.38;100135.47;5075751;27;46021;-74
2022/06/23 11:56:04;;;;;;;;;6.00;4.25;;;;;29.47;50.07;100141.00;5075419;28;45360;-73
2022/06/23 11:59:02;;;;;;;;;8.50;6.00;;;;;29.24;49.89;100136.66;5075397;27;45287;-73
2022/06/23 12:01:28;;;;;;;;;7.50;7.50;;;;;29.05;49.57;100130.84;5075113;27;45237;-71
2022/06/23 12:04:05;;;;;;;;;7.50;7.50;;;;;29.08;49.47;100133.16;5074612;28;45308;-70
2022/06/23 12:06:40;;;;;;;;;8.50;8.50;;;;;29.16;49.99;100124.06;5075075;28;45324;-70
2022/06/23 12:09:33;;;;;;;;;7.75;7.75;;;;;29.22;50.21;100126.00;5075305;27;45334;-70
2022/06/23 12:12:05;;;;;;;;;9.00;9.00;;;;;29.30;50.18;100114.19;5090728;27;45572;-75